Asheboro, North Carolina
Current Conditions -  °F | °C
As of 11:35 AM on Saturday 22 Nov 2014 (Local Time) from KHBI Reporting Station
Clear Clear  
Wind Chill: 45°   Ceiling: Unl
Heat Index: 45°   Visibility: 10mi
Dew Point: 15°   Wind: 0mph
Humidity: 30%   Direction: NA
Pressure: 30.54"   Gusts: NA
Location:  35.71°N, 79.81°W
Report Text: KHBI 221635Z AUTO 00000KT 10SM CLR 07/M10 A3054 RMK AO2 T00721096
Loading
Personal Weather Stations






























Interactive Weather Map New forecast layout! Learn more

10-Day Weather Forecast

Advertisements
Track Severe Weather on mobile